Jacques Jacob — ZDKG7 — position and weather

sailwx.info

Track history (hours):
 
Tides and Currents Weather Stations Pressure Air Temp Water Temp Dewpoint Dewpoint Depression Visibility Wind Speed Wind Dir Waves Ship Positions

Jacques Jacob

Last reported at 2014-Nov-19 02:33 UTC. Time now 2014-Nov-26 16:19 UTC.
Position N 35°60' E 014°49'.

Length 228 m; draft 13.2 m.

Type: Tanker. MMSI: 236612000.

Date/timePositionNaut miles runAvg speedWind from/ knotsBaromVisibWave heightAir tempDewpointWater temp
2014-Nov-19 02:33N 35°60' E 014°49'8 7.9
2014-Nov-19 01:33N 36°02' E 014°40'1111.2
2014-Nov-19 00:33N 36°06' E 014°27'1211.2
2014-Nov-18 23:29N 36°11' E 014°13'1111.2
2014-Nov-18 22:31N 36°15' E 014°01'4511.2
2014-Nov-18 18:32N 36°34' E 013°11'4410.7
2014-Nov-18 14:27N 36°54' E 012°22'2010.8
2014-Nov-18 12:33N 37°04' E 011°60'1211.0
2014-Nov-18 11:27N 37°09' E 011°46'  
2014-Nov-15 14:29N 36°04' W 005°08'8 8.6
2014-Nov-15 13:34N 36°06' W 005°18'4 0.8
2014-Nov-15 08:34N 36°06' W 005°23'7 6.8
2014-Nov-15 07:33N 35°59' W 005°25'  
Track history (hours):
 
Tides and Currents Weather Stations Pressure Air Temp Water Temp Dewpoint Dewpoint Depression Visibility Wind Speed Wind Dir Waves Ship Positions

Jacques Jacob

Last reported at 2014-Nov-19 02:33 UTC. Time now 2014-Nov-26 16:19 UTC.
Position N 35°60' E 014°49'.

Length 228 m; draft 13.2 m.

Type: Tanker. MMSI: 236612000.

Date/timePositionNaut miles runAvg speedWind from/ knotsBaromVisibWave heightAir tempDewpointWater temp
2014-Nov-19 02:33N 35°60' E 014°49'8 7.9
2014-Nov-19 01:33N 36°02' E 014°40'1111.2
2014-Nov-19 00:33N 36°06' E 014°27'1211.2
2014-Nov-18 23:29N 36°11' E 014°13'1111.2
2014-Nov-18 22:31N 36°15' E 014°01'4511.2
2014-Nov-18 18:32N 36°34' E 013°11'4410.7
2014-Nov-18 14:27N 36°54' E 012°22'2010.8
2014-Nov-18 12:33N 37°04' E 011°60'1211.0
2014-Nov-18 11:27N 37°09' E 011°46'  
2014-Nov-15 14:29N 36°04' W 005°08'8 8.6
2014-Nov-15 13:34N 36°06' W 005°18'4 0.8
2014-Nov-15 08:34N 36°06' W 005°23'7 6.8
2014-Nov-15 07:33N 35°59' W 005°25'  

Dump ship's entire track history